createdAt,value
2018-04-23T00:00:15.107Z,50.43
2018-04-23T00:01:14.833Z,50.53
2018-04-23T00:02:14.870Z,50.34
2018-04-23T00:03:14.981Z,50.53
2018-04-23T00:04:15.082Z,50.14
2018-04-23T00:05:16.226Z,50.24
2018-04-23T00:06:15.093Z,50.53
2018-04-23T00:07:15.421Z,50.24
2018-04-23T00:08:15.318Z,50.62
2018-04-23T00:09:15.233Z,50.62
2018-04-23T00:10:15.245Z,50.43
2018-04-23T00:11:15.259Z,50.62
2018-04-23T00:12:15.331Z,50.62
2018-04-23T00:13:15.431Z,50.65
2018-04-23T00:14:15.679Z,50.72
2018-04-23T00:15:15.409Z,50.62
2018-04-23T00:16:15.444Z,50.14
2018-04-23T00:17:16.171Z,50.53
2018-04-23T00:18:15.470Z,50.65
2018-04-23T00:19:15.464Z,50.34
2018-04-23T00:20:16.741Z,50.53
2018-04-23T00:21:15.820Z,50.62
2018-04-23T00:22:15.550Z,50.53
2018-04-23T00:23:15.595Z,50.62
2018-04-23T00:24:15.619Z,50.84
2018-04-23T00:25:15.756Z,50.62
2018-04-23T00:26:15.805Z,50.46
2018-04-23T00:27:15.959Z,50.72
2018-04-23T00:28:16.213Z,50.53
2018-04-23T00:29:15.956Z,50.92
2018-04-23T00:30:15.926Z,50.92
2018-04-23T00:31:15.952Z,51.04
2018-04-23T00:32:16.012Z,50.92
2018-04-23T00:33:16.000Z,51.11
2018-04-23T00:34:16.399Z,51.14
2018-04-23T00:35:15.994Z,51.21
2018-04-23T00:36:16.036Z,51.21
2018-04-23T00:37:16.121Z,50.92
2018-04-23T00:38:16.225Z,50.84
2018-04-23T00:39:16.123Z,50.74
2018-04-23T00:40:16.584Z,51.04
2018-04-23T00:41:16.290Z,50.82
2018-04-23T00:42:16.290Z,50.82
2018-04-23T00:43:16.301Z,50.84
2018-04-23T00:44:16.363Z,50.43
2018-04-23T00:45:16.341Z,51.04
2018-04-23T00:46:17.869Z,51.31
2018-04-23T00:47:16.481Z,51.01
2018-04-23T00:48:16.525Z,50.82
2018-04-23T00:49:16.574Z,50.92
2018-04-23T00:50:16.623Z,50.92
2018-04-23T00:51:16.647Z,51.21
2018-04-23T00:52:16.985Z,50.92
2018-04-23T00:53:16.864Z,51.31
2018-04-23T00:54:16.656Z,51.59
2018-04-23T00:55:16.760Z,51.59
2018-04-23T00:56:16.816Z,51.40
2018-04-23T00:57:16.809Z,51.23
2018-04-23T00:58:17.069Z,51.50
2018-04-23T00:59:18.156Z,51.50
2018-04-23T01:00:16.959Z,51.40
2018-04-23T01:01:16.978Z,51.31
2018-04-23T01:02:17.003Z,51.40
2018-04-23T01:03:17.035Z,51.01
2018-04-23T01:04:17.509Z,51.40
2018-04-23T01:05:17.091Z,51.11
2018-04-23T01:06:17.103Z,51.01
2018-04-23T01:07:17.157Z,51.11
2018-04-23T01:08:17.194Z,51.11
2018-04-23T01:09:17.293Z,51.33
2018-04-23T01:10:17.628Z,51.31
2018-04-23T01:11:17.333Z,51.43
2018-04-23T01:12:17.340Z,51.50
2018-04-23T01:13:17.400Z,51.89
2018-04-23T01:14:17.315Z,51.72
2018-04-23T01:15:17.376Z,51.50
2018-04-23T01:16:17.681Z,51.50
2018-04-23T01:17:17.432Z,51.79
2018-04-23T01:18:17.445Z,51.59
2018-04-23T01:19:17.639Z,51.98
2018-04-23T01:20:17.607Z,51.79
2018-04-23T01:21:17.647Z,51.69
2018-04-23T01:22:17.983Z,51.89
2018-04-23T01:23:17.699Z,51.79
2018-04-23T01:24:17.864Z,51.89
2018-04-23T01:25:17.809Z,51.69
2018-04-23T01:26:17.834Z,51.98
2018-04-23T01:27:17.769Z,51.79
2018-04-23T01:28:18.088Z,51.59
2018-04-23T01:29:17.909Z,51.62
2018-04-23T01:30:17.965Z,51.79
2018-04-23T01:31:18.006Z,51.98
2018-04-23T01:32:18.025Z,52.56
2018-04-23T01:33:17.959Z,52.47
2018-04-23T01:34:18.348Z,52.47
2018-04-23T01:35:18.039Z,52.28
2018-04-23T01:36:18.061Z,52.56
2018-04-23T01:37:18.176Z,52.37
2018-04-23T01:38:18.243Z,52.37
2018-04-23T01:39:18.263Z,52.30
2018-04-23T01:40:18.587Z,52.28
2018-04-23T01:41:18.327Z,52.28
2018-04-23T01:42:18.262Z,52.47
2018-04-23T01:43:18.299Z,52.56
2018-04-23T01:44:18.406Z,52.86
2018-04-23T01:45:18.363Z,52.37
2018-04-23T01:46:18.764Z,52.47
2018-04-23T01:47:18.520Z,52.47
2018-04-23T01:48:18.561Z,52.47
2018-04-23T01:49:18.574Z,52.47
2018-04-23T01:50:18.604Z,52.47
2018-04-23T01:51:18.569Z,52.56
2018-04-23T01:52:19.008Z,52.47
2018-04-23T01:53:18.839Z,52.76
2018-04-23T01:54:18.828Z,52.76
2018-04-23T01:55:18.809Z,52.76
2018-04-23T01:56:18.832Z,52.66
2018-04-23T01:57:18.860Z,52.66
2018-04-23T01:58:19.084Z,53.15
2018-04-23T01:59:19.287Z,53.24
2018-04-23T02:00:18.966Z,53.05
2018-04-23T02:01:18.991Z,53.15
2018-04-23T02:02:19.043Z,52.95
2018-04-23T02:03:19.045Z,53.24
2018-04-23T02:04:19.100Z,52.86
2018-04-23T02:05:20.307Z,53.44
2018-04-23T02:06:19.455Z,53.05
2018-04-23T02:07:19.225Z,52.95
2018-04-23T02:08:19.230Z,53.34
2018-04-23T02:09:19.293Z,52.95
2018-04-23T02:10:19.342Z,52.76
2018-04-23T02:11:19.345Z,52.76
2018-04-23T02:12:19.379Z,52.76
2018-04-23T02:13:19.700Z,53.05
2018-04-23T02:14:19.538Z,52.76
2018-04-23T02:15:19.463Z,53.05
2018-04-23T02:16:19.520Z,53.05
2018-04-23T02:17:19.591Z,53.05
2018-04-23T02:18:19.563Z,52.76
2018-04-23T02:19:19.645Z,53.05
2018-04-23T02:20:19.962Z,52.95
2018-04-23T02:21:20.901Z,53.05
2018-04-23T02:22:19.713Z,52.86
2018-04-23T02:23:19.649Z,53.05
2018-04-23T02:24:19.689Z,53.05
2018-04-23T02:25:20.372Z,52.86
2018-04-23T02:26:20.053Z,53.15
2018-04-23T02:27:19.785Z,52.95
2018-04-23T02:28:19.910Z,52.95
2018-04-23T02:29:19.959Z,52.76
2018-04-23T02:30:19.972Z,53.05
2018-04-23T02:31:20.400Z,52.76
2018-04-23T02:32:19.956Z,53.44
2018-04-23T02:33:20.322Z,52.76
2018-04-23T02:34:20.360Z,53.44
2018-04-23T02:35:20.129Z,52.76
2018-04-23T02:36:20.313Z,53.44
2018-04-23T02:37:20.216Z,52.86
2018-04-23T02:38:20.277Z,52.76
2018-04-23T02:39:20.687Z,53.44
2018-04-23T02:40:20.291Z,52.66
2018-04-23T02:41:20.385Z,52.76
2018-04-23T02:42:20.371Z,52.76
2018-04-23T02:43:20.371Z,52.95
2018-04-23T02:44:20.455Z,52.76
2018-04-23T02:45:20.818Z,52.86
2018-04-23T02:46:20.509Z,53.34
2018-04-23T02:47:20.526Z,53.05
2018-04-23T02:48:20.603Z,52.66
2018-04-23T02:49:20.607Z,52.76
2018-04-23T02:50:20.787Z,52.86
2018-04-23T02:51:20.600Z,52.95
2018-04-23T02:52:20.931Z,53.05
2018-04-23T02:53:20.665Z,53.44
2018-04-23T02:54:20.707Z,53.73
2018-04-23T02:55:20.832Z,53.44
2018-04-23T02:56:20.853Z,53.44
2018-04-23T02:57:20.888Z,53.53
2018-04-23T02:58:21.221Z,53.44
2018-04-23T02:59:20.968Z,53.53
2018-04-23T03:00:20.995Z,53.05
2018-04-23T03:01:21.134Z,53.24
2018-04-23T03:02:20.967Z,53.24
2018-04-23T03:03:21.002Z,53.53
2018-04-23T03:04:21.037Z,53.63
2018-04-23T03:05:21.419Z,53.34
2018-04-23T03:06:21.159Z,53.24
2018-04-23T03:07:21.139Z,53.63
2018-04-23T03:08:21.171Z,53.53
2018-04-23T03:09:21.315Z,53.53
2018-04-23T03:10:21.401Z,53.63
2018-04-23T03:11:22.090Z,53.53
2018-04-23T03:12:21.770Z,53.63
2018-04-23T03:13:21.417Z,53.63
2018-04-23T03:14:21.461Z,53.83
2018-04-23T03:15:21.525Z,53.44
2018-04-23T03:16:21.516Z,53.73
2018-04-23T03:17:21.667Z,53.53
2018-04-23T03:18:21.914Z,53.44
2018-04-23T03:19:21.628Z,53.53
2018-04-23T03:20:21.639Z,53.92
2018-04-23T03:21:21.708Z,54.11
2018-04-23T03:22:21.759Z,54.21
2018-04-23T03:23:21.719Z,54.11
2018-04-23T03:24:22.103Z,54.21
2018-04-23T03:25:21.739Z,54.21
2018-04-23T03:26:21.834Z,53.83
2018-04-23T03:27:21.902Z,54.02
2018-04-23T03:28:21.838Z,54.11
2018-04-23T03:29:21.890Z,54.11
2018-04-23T03:30:22.206Z,53.83
2018-04-23T03:31:22.050Z,53.83
2018-04-23T03:32:22.114Z,53.92
2018-04-23T03:33:22.134Z,53.92
2018-04-23T03:34:22.186Z,53.83
2018-04-23T03:35:22.209Z,53.92
2018-04-23T03:36:22.217Z,54.02
2018-04-23T03:37:22.524Z,54.41
2018-04-23T03:38:22.249Z,54.41
2018-04-23T03:39:22.212Z,54.50
2018-04-23T03:40:22.341Z,53.83
2018-04-23T03:41:22.437Z,54.41
2018-04-23T03:42:22.471Z,54.02
2018-04-23T03:43:22.831Z,54.11
2018-04-23T03:44:22.487Z,53.83
2018-04-23T03:45:22.458Z,54.50
2018-04-23T03:46:22.527Z,54.11
2018-04-23T03:47:22.758Z,54.41
2018-04-23T03:48:22.588Z,54.31
2018-04-23T03:49:22.974Z,54.50
2018-04-23T03:50:22.671Z,54.02
2018-04-23T03:51:22.668Z,54.41
2018-04-23T03:52:22.811Z,54.50
2018-04-23T03:53:22.804Z,54.41
2018-04-23T03:54:22.877Z,54.31
2018-04-23T03:55:23.127Z,54.31
2018-04-23T03:56:22.815Z,54.21
2018-04-23T03:57:23.004Z,54.38
2018-04-23T03:58:22.935Z,54.41
2018-04-23T03:59:22.880Z,54.38
2018-04-23T04:00:23.042Z,54.41
2018-04-23T04:01:23.351Z,54.19
2018-04-23T04:02:23.071Z,54.50
2018-04-23T04:03:23.139Z,54.38
2018-04-23T04:04:23.046Z,54.28
2018-04-23T04:05:23.166Z,54.28
2018-04-23T04:06:23.182Z,54.38
2018-04-23T04:07:23.571Z,54.19
2018-04-23T04:08:23.269Z,54.48
2018-04-23T04:09:23.329Z,54.50
2018-04-23T04:10:23.270Z,54.38
2018-04-23T04:11:23.371Z,54.38
2018-04-23T04:12:23.757Z,54.67
2018-04-23T04:13:23.666Z,54.86
2018-04-23T04:14:23.398Z,54.77
2018-04-23T04:15:23.547Z,54.67
2018-04-23T04:16:23.577Z,54.67
2018-04-23T04:17:23.589Z,54.70
2018-04-23T04:18:23.696Z,54.67
2018-04-23T04:19:23.854Z,54.77
2018-04-23T04:20:23.799Z,54.67
2018-04-23T04:21:23.738Z,54.67
2018-04-23T04:22:23.892Z,54.48
2018-04-23T04:23:23.736Z,54.80
2018-04-23T04:24:23.839Z,54.58
2018-04-23T04:25:23.847Z,54.67
2018-04-23T04:26:24.175Z,54.77
2018-04-23T04:27:23.871Z,54.19
2018-04-23T04:28:23.904Z,54.28
2018-04-23T04:29:23.982Z,54.38
2018-04-23T04:30:23.942Z,54.38
2018-04-23T04:31:24.063Z,54.09
2018-04-23T04:32:24.306Z,53.15
2018-04-23T04:33:24.122Z,53.05
2018-04-23T04:34:24.056Z,53.02
2018-04-23T04:35:24.225Z,52.73
2018-04-23T04:36:24.196Z,53.12
2018-04-23T04:37:24.230Z,53.12
2018-04-23T04:38:24.279Z,53.12
2018-04-23T04:39:24.561Z,52.73
2018-04-23T04:40:24.390Z,52.44
2018-04-23T04:41:24.295Z,53.00
2018-04-23T04:42:24.325Z,53.09
2018-04-23T04:43:24.423Z,53.12
2018-04-23T04:44:24.676Z,52.80
2018-04-23T04:45:24.429Z,52.71
2018-04-23T04:46:25.107Z,52.61
2018-04-23T04:47:24.490Z,52.80
2018-04-23T04:48:24.521Z,52.42
2018-04-23T04:49:24.559Z,52.80
2018-04-23T04:50:24.590Z,52.80
2018-04-23T04:51:24.722Z,52.51
2018-04-23T04:52:25.067Z,52.32
2018-04-23T04:53:24.738Z,52.22
2018-04-23T04:54:24.832Z,51.84
2018-04-23T04:55:24.861Z,52.39
2018-04-23T04:56:24.898Z,51.74
2018-04-23T04:57:24.949Z,51.74
2018-04-23T04:58:25.251Z,51.90
2018-04-23T04:59:24.992Z,51.52
2018-04-23T05:00:25.009Z,51.72
2018-04-23T05:01:25.220Z,51.52
2018-04-23T05:02:25.100Z,51.90
2018-04-23T05:03:25.293Z,51.72
2018-04-23T05:04:25.367Z,52.00
2018-04-23T05:05:25.129Z,51.72
2018-04-23T05:06:25.133Z,51.52
2018-04-23T05:07:25.162Z,51.62
2018-04-23T05:08:25.276Z,51.23
2018-04-23T05:09:25.361Z,51.81
2018-04-23T05:10:25.625Z,51.32
2018-04-23T05:11:25.395Z,51.32
2018-04-23T05:12:26.198Z,50.74
2018-04-23T05:13:25.514Z,50.74
2018-04-23T05:14:25.471Z,50.65
2018-04-23T05:15:25.421Z,50.84
2018-04-23T05:16:25.754Z,51.04
2018-04-23T05:17:25.486Z,51.32
2018-04-23T05:18:25.613Z,51.50
2018-04-23T05:19:25.695Z,51.42
2018-04-23T05:20:25.680Z,51.20
2018-04-23T05:21:26.910Z,50.92
2018-04-23T05:22:26.056Z,51.30
2018-04-23T05:23:25.883Z,51.30
2018-04-23T05:24:25.718Z,50.72
2018-04-23T05:25:25.855Z,51.30
2018-04-23T05:26:25.783Z,50.72
2018-04-23T05:27:25.916Z,50.62
2018-04-23T05:28:26.257Z,50.72
2018-04-23T05:29:25.978Z,50.62
2018-04-23T05:30:26.011Z,50.62
2018-04-23T05:31:26.070Z,50.33
2018-04-23T05:32:26.071Z,51.30
2018-04-23T05:33:26.106Z,51.10
2018-04-23T05:34:26.630Z,51.30
2018-04-23T05:35:26.102Z,50.72
2018-04-23T05:36:26.219Z,51.01
2018-04-23T05:37:26.424Z,51.20
2018-04-23T05:38:26.342Z,51.20
2018-04-23T05:39:26.526Z,50.62
2018-04-23T05:40:26.543Z,50.82
2018-04-23T05:41:26.384Z,50.72
2018-04-23T05:42:26.465Z,50.72
2018-04-23T05:43:26.590Z,51.30
2018-04-23T05:44:26.464Z,51.01
2018-04-23T05:45:27.714Z,51.30
2018-04-23T05:46:26.845Z,51.20
2018-04-23T05:47:26.629Z,51.40
2018-04-23T05:48:26.623Z,51.10
2018-04-23T05:49:26.627Z,50.72
2018-04-23T05:50:26.699Z,51.50
2018-04-23T05:51:26.730Z,51.68
2018-04-23T05:52:26.774Z,51.88
2018-04-23T05:53:28.371Z,51.68
2018-04-23T05:54:26.811Z,51.40
2018-04-23T05:55:27.534Z,51.88
2018-04-23T05:56:26.934Z,51.59
2018-04-23T05:57:26.881Z,51.68
2018-04-23T05:58:26.955Z,51.68
2018-04-23T05:59:27.248Z,52.00
2018-04-23T06:00:27.025Z,51.72
2018-04-23T06:01:27.048Z,51.72
2018-04-23T06:02:27.148Z,51.72
2018-04-23T06:03:27.193Z,51.81
2018-04-23T06:04:28.382Z,51.81
2018-04-23T06:05:27.468Z,51.72
2018-04-23T06:06:27.225Z,51.52
2018-04-23T06:07:27.294Z,51.81
2018-04-23T06:08:27.240Z,51.23
2018-04-23T06:09:27.285Z,51.52
2018-04-23T06:10:27.293Z,51.42
2018-04-23T06:11:27.735Z,51.52
2018-04-23T06:12:27.369Z,51.90
2018-04-23T06:13:27.412Z,51.42
2018-04-23T06:14:27.596Z,51.42
2018-04-23T06:15:27.544Z,51.42
2018-04-23T06:16:27.489Z,51.42
2018-04-23T06:17:27.935Z,51.16
2018-04-23T06:18:27.584Z,51.25
2018-04-23T06:19:27.647Z,51.32
2018-04-23T06:20:27.567Z,51.06
2018-04-23T06:21:27.684Z,51.35
2018-04-23T06:22:28.876Z,51.54
2018-04-23T06:23:29.232Z,51.25
2018-04-23T06:24:27.705Z,51.06
2018-04-23T06:25:27.718Z,51.25
2018-04-23T06:26:27.764Z,51.35
2018-04-23T06:27:27.791Z,51.35
2018-04-23T06:28:27.914Z,51.45
2018-04-23T06:29:28.372Z,51.45
2018-04-23T06:30:28.024Z,50.87
2018-04-23T06:31:28.044Z,50.77
2018-04-23T06:33:28.437Z,51.06
2018-04-23T06:34:28.431Z,50.67
2018-04-23T06:35:28.537Z,51.25
2018-04-23T06:36:28.220Z,51.16
2018-04-23T06:37:28.244Z,50.48
2018-04-23T06:38:29.267Z,50.77
2018-04-23T06:39:28.303Z,51.35
2018-04-23T06:40:28.472Z,50.38
2018-04-23T06:41:28.626Z,50.77
2018-04-23T06:42:28.283Z,50.77
2018-04-23T06:43:28.320Z,50.67
2018-04-23T06:44:28.351Z,51.09
2018-04-23T06:45:28.386Z,50.87
2018-04-23T06:46:28.614Z,50.70
2018-04-23T06:47:28.754Z,50.79
2018-04-23T06:48:28.488Z,50.99
2018-04-23T06:49:28.522Z,51.09
2018-04-23T06:50:28.555Z,51.18
2018-04-23T06:51:28.686Z,50.99
2018-04-23T06:52:28.636Z,51.06
2018-04-23T06:53:28.954Z,51.06
2018-04-23T06:54:28.781Z,51.16
2018-04-23T06:55:28.724Z,50.89
2018-04-23T06:56:29.045Z,50.89
2018-04-23T06:57:28.902Z,50.31
2018-04-23T06:58:29.025Z,50.60
2018-04-23T06:59:29.165Z,50.41
2018-04-23T07:00:29.029Z,50.60
2018-04-23T07:01:29.126Z,50.31
2018-04-23T07:02:28.961Z,50.12
2018-04-23T07:03:30.197Z,50.50
2018-04-23T07:04:29.029Z,50.50
2018-04-23T07:05:29.588Z,50.41
2018-04-23T07:06:29.191Z,50.41
2018-04-23T07:07:29.488Z,50.41
2018-04-23T07:08:30.460Z,50.21
2018-04-23T07:09:29.262Z,50.12
2018-04-23T07:10:29.370Z,50.41
2018-04-23T07:11:29.672Z,50.21
2018-04-23T07:12:30.626Z,50.02
2018-04-23T07:13:29.456Z,50.41
2018-04-23T07:14:29.549Z,50.21
2018-04-23T07:15:29.573Z,50.12
2018-04-23T07:16:29.708Z,50.02
2018-04-23T07:17:29.866Z,50.31
2018-04-23T07:18:29.620Z,50.41
2018-04-23T07:19:29.625Z,50.41
2018-04-23T07:20:29.636Z,50.21
2018-04-23T07:21:29.708Z,50.21
2018-04-23T07:22:29.723Z,50.60
2018-04-23T07:23:29.977Z,50.70
2018-04-23T07:24:29.707Z,50.41
2018-04-23T07:25:29.730Z,50.60
2018-04-23T07:26:29.942Z,50.50
2018-04-23T07:27:29.875Z,50.41
2018-04-23T07:28:29.959Z,50.60
2018-04-23T07:29:30.197Z,50.50
2018-04-23T07:30:30.074Z,50.41
2018-04-23T07:31:30.337Z,50.21
2018-04-23T07:32:30.059Z,50.60
2018-04-23T07:33:30.110Z,50.31
2018-04-23T07:34:30.205Z,50.41
2018-04-23T07:35:30.456Z,50.60
2018-04-23T07:36:30.128Z,50.12
2018-04-23T07:37:30.267Z,50.41
2018-04-23T07:38:30.214Z,50.50
2018-04-23T07:39:30.352Z,50.41
2018-04-23T07:40:30.473Z,50.12
2018-04-23T07:41:32.815Z,50.50
2018-04-23T07:42:30.343Z,50.31
2018-04-23T07:43:30.336Z,50.21
2018-04-23T07:44:30.379Z,50.41
2018-04-23T07:45:30.417Z,50.41
2018-04-23T07:46:30.471Z,50.50
2018-04-23T07:47:30.780Z,50.60
2018-04-23T07:48:30.909Z,50.50
2018-04-23T07:49:30.663Z,50.21
2018-04-23T07:50:30.752Z,50.12
2018-04-23T07:51:30.643Z,50.50
2018-04-23T07:52:30.716Z,50.41
2018-04-23T07:53:30.980Z,50.41
2018-04-23T07:54:30.818Z,50.50
2018-04-23T07:55:31.043Z,50.41
2018-04-23T07:56:30.938Z,50.50
2018-04-23T07:57:30.890Z,50.41
2018-04-23T07:58:30.939Z,50.79
2018-04-23T07:59:31.297Z,50.60
2018-04-23T08:00:30.994Z,50.50
2018-04-23T08:01:31.224Z,50.41
2018-04-23T08:02:31.128Z,50.50
2018-04-23T08:03:31.095Z,50.31
2018-04-23T08:04:31.089Z,50.21
2018-04-23T08:05:31.414Z,50.41
2018-04-23T08:06:31.276Z,50.12
2018-04-23T08:07:31.248Z,50.21
2018-04-23T08:08:31.271Z,50.41
2018-04-23T08:09:31.615Z,50.12
2018-04-23T08:10:31.351Z,50.21
2018-04-23T08:11:31.658Z,50.50
2018-04-23T08:12:31.359Z,50.60
2018-04-23T08:13:31.362Z,50.02
2018-04-23T08:14:31.383Z,50.31
2018-04-23T08:15:31.443Z,50.31
2018-04-23T08:16:31.441Z,50.31
2018-04-23T08:17:31.840Z,50.21
2018-04-23T08:18:31.637Z,50.60
2018-04-23T08:19:31.547Z,50.31
2018-04-23T08:20:31.692Z,49.95
2018-04-23T08:21:31.713Z,49.54
2018-04-23T08:22:31.756Z,49.85
2018-04-23T08:23:32.095Z,50.12
2018-04-23T08:24:31.708Z,49.95
2018-04-23T08:25:31.933Z,49.82
2018-04-23T08:26:32.016Z,49.82
2018-04-23T08:27:32.110Z,50.04
2018-04-23T08:28:31.971Z,49.95
2018-04-23T08:29:32.186Z,49.75
2018-04-23T08:30:32.027Z,50.04
2018-04-23T08:31:31.950Z,50.04
2018-04-23T08:32:32.241Z,49.95
2018-04-23T08:33:32.022Z,49.85
2018-04-23T08:34:33.421Z,50.04
2018-04-23T08:35:32.393Z,50.04
2018-04-23T08:36:32.241Z,50.04
2018-04-23T08:37:32.346Z,49.95
2018-04-23T08:38:32.291Z,49.56
2018-04-23T08:39:32.216Z,49.66
2018-04-23T08:40:32.255Z,49.27
2018-04-23T08:41:32.586Z,49.17
2018-04-23T08:42:32.438Z,49.37
2018-04-23T08:43:32.832Z,49.27
2018-04-23T08:44:32.516Z,48.88
2018-04-23T08:45:32.534Z,48.97
2018-04-23T08:46:32.572Z,49.27
2018-04-23T08:47:32.935Z,49.37
2018-04-23T08:48:32.656Z,49.56
2018-04-23T08:49:32.772Z,49.17
2018-04-23T08:50:32.737Z,49.46
2018-04-23T08:51:32.733Z,49.75
2018-04-23T08:52:32.961Z,49.56
2018-04-23T08:53:33.104Z,49.46
2018-04-23T08:54:33.501Z,49.46
2018-04-23T08:55:32.925Z,49.27
2018-04-23T08:56:32.917Z,49.17
2018-04-23T08:57:32.983Z,49.17
2018-04-23T08:58:33.007Z,48.97
2018-04-23T08:59:33.307Z,49.46
2018-04-23T09:00:33.060Z,49.27
2018-04-23T09:01:33.099Z,49.66
2018-04-23T09:02:33.060Z,49.75
2018-04-23T09:03:33.038Z,49.85
2018-04-23T09:04:33.153Z,49.07
2018-04-23T09:05:33.498Z,48.69
2018-04-23T09:06:33.138Z,48.69
2018-04-23T09:07:33.708Z,48.97
2018-04-23T09:08:33.285Z,48.97
2018-04-23T09:09:34.523Z,48.97
2018-04-23T09:10:33.353Z,49.17
2018-04-23T09:11:34.061Z,49.17
2018-04-23T09:12:33.425Z,49.07
2018-04-23T09:13:33.399Z,49.46
2018-04-23T09:14:33.412Z,49.75
2018-04-23T09:15:33.436Z,49.85
2018-04-23T09:16:33.672Z,49.17
2018-04-23T09:17:33.804Z,49.07
2018-04-23T09:18:34.093Z,48.97
2018-04-23T09:19:33.664Z,48.88
2018-04-23T09:20:34.319Z,48.69
2018-04-23T09:21:33.726Z,48.78
2018-04-23T09:22:33.834Z,48.97
2018-04-23T09:23:34.229Z,48.88
2018-04-23T09:24:33.884Z,48.78
2018-04-23T09:25:33.909Z,48.78
2018-04-23T09:26:33.976Z,48.88
2018-04-23T09:27:33.926Z,48.69
2018-04-23T09:28:34.033Z,48.97
2018-04-23T09:29:34.264Z,49.17
2018-04-23T09:30:34.057Z,48.88
2018-04-23T09:31:33.988Z,48.59
2018-04-23T09:32:34.105Z,48.69
2018-04-23T09:33:35.037Z,48.69
2018-04-23T09:34:34.150Z,48.88
2018-04-23T09:35:34.421Z,48.59
2018-04-23T09:36:34.246Z,48.78
2018-04-23T09:37:34.287Z,48.78
2018-04-23T09:38:34.313Z,49.07
2018-04-23T09:39:34.912Z,48.59
2018-04-23T09:40:34.595Z,48.78
2018-04-23T09:41:34.700Z,48.69
2018-04-23T09:42:34.478Z,48.97
2018-04-23T09:43:34.533Z,48.69
2018-04-23T09:44:34.566Z,48.97
2018-04-23T09:45:34.537Z,48.78
2018-04-23T09:46:34.563Z,48.88
2018-04-23T09:47:35.126Z,49.00
2018-04-23T09:48:34.672Z,48.69
2018-04-23T09:49:34.744Z,48.88
2018-04-23T09:50:34.722Z,48.78
2018-04-23T09:51:34.765Z,48.59
2018-04-23T09:52:34.809Z,48.78
2018-04-23T09:53:35.165Z,48.80
2018-04-23T09:54:34.920Z,49.10
2018-04-23T09:55:34.936Z,48.80
2018-04-23T09:56:34.902Z,48.90
2018-04-23T09:57:34.952Z,48.97
2018-04-23T09:58:35.057Z,48.52
2018-04-23T09:59:35.351Z,48.42
2018-04-23T10:00:35.099Z,48.59
2018-04-23T10:01:35.116Z,48.71
2018-04-23T10:02:35.099Z,48.32
2018-04-23T10:03:36.390Z,48.90
2018-04-23T10:04:35.154Z,48.61
2018-04-23T10:05:35.590Z,48.61
2018-04-23T10:06:35.295Z,49.10
2018-04-23T10:07:36.503Z,48.61
2018-04-23T10:08:35.326Z,49.00
2018-04-23T10:09:35.403Z,48.22
2018-04-23T10:10:35.569Z,48.22
2018-04-23T10:11:35.812Z,48.90
2018-04-23T10:12:35.493Z,48.22
2018-04-23T10:13:35.525Z,48.03
2018-04-23T10:14:35.497Z,48.22
2018-04-23T10:15:35.579Z,48.32
2018-04-23T10:16:35.632Z,48.32
2018-04-23T10:17:36.096Z,47.83
2018-04-23T10:18:35.733Z,48.13
2018-04-23T10:19:35.746Z,48.03
2018-04-23T10:20:35.768Z,47.93
2018-04-23T10:21:35.861Z,47.93
2018-04-23T10:22:35.753Z,48.03
2018-04-23T10:23:36.135Z,48.42
2018-04-23T10:24:35.876Z,48.42
2018-04-23T10:25:35.907Z,48.32
2018-04-23T10:26:35.858Z,48.13
2018-04-23T10:27:36.007Z,48.03
2018-04-23T10:28:36.095Z,48.13
2018-04-23T10:29:35.970Z,48.22
2018-04-23T10:30:36.087Z,47.74
2018-04-23T10:31:36.029Z,48.13
2018-04-23T10:32:36.069Z,48.13
2018-04-23T10:33:36.123Z,48.13
2018-04-23T10:34:36.533Z,47.83
2018-04-23T10:35:36.281Z,47.74
2018-04-23T10:36:36.321Z,47.74
2018-04-23T10:37:36.428Z,47.93
2018-04-23T10:38:36.932Z,47.74
2018-04-23T10:39:36.475Z,47.83
2018-04-23T10:40:37.874Z,47.74
2018-04-23T10:41:36.406Z,48.32
2018-04-23T10:42:36.413Z,48.13
2018-04-23T10:43:36.563Z,47.83
2018-04-23T10:44:36.538Z,47.74
2018-04-23T10:45:36.623Z,47.74
2018-04-23T10:46:36.962Z,47.83
2018-04-23T10:47:37.023Z,47.74
2018-04-23T10:48:36.658Z,47.47
2018-04-23T10:49:37.954Z,47.64
2018-04-23T10:50:36.806Z,47.45
2018-04-23T10:51:36.714Z,47.55
2018-04-23T10:52:37.060Z,47.93
2018-04-23T10:53:36.781Z,47.55
2018-04-23T10:54:36.831Z,47.06
2018-04-23T10:55:36.914Z,47.35
2018-04-23T10:56:37.013Z,47.74
2018-04-23T10:57:37.044Z,47.16
2018-04-23T10:58:37.913Z,47.28
2018-04-23T10:59:37.177Z,47.45
2018-04-23T11:00:38.348Z,47.45
2018-04-23T11:01:37.149Z,47.35
2018-04-23T11:02:38.347Z,47.45
2018-04-23T11:03:37.222Z,46.96
2018-04-23T11:04:37.675Z,47.35
2018-04-23T11:05:37.282Z,47.64
2018-04-23T11:06:37.228Z,47.83
2018-04-23T11:07:37.345Z,47.74
2018-04-23T11:08:37.319Z,47.38
2018-04-23T11:09:37.553Z,47.47
2018-04-23T11:10:37.810Z,47.64
2018-04-23T11:11:38.657Z,47.57
2018-04-23T11:12:37.531Z,47.55
2018-04-23T11:13:37.598Z,47.66
2018-04-23T11:14:37.593Z,47.08
2018-04-23T11:15:37.701Z,47.55
2018-04-23T11:16:37.977Z,47.16
2018-04-23T11:17:37.736Z,47.25
2018-04-23T11:18:37.901Z,47.25
2018-04-23T11:19:37.724Z,47.18
2018-04-23T11:20:38.374Z,47.38
2018-04-23T11:21:37.769Z,47.08
2018-04-23T11:22:39.392Z,47.45
2018-04-23T11:23:37.822Z,47.38
2018-04-23T11:24:37.859Z,47.28
2018-04-23T11:25:37.884Z,47.38
2018-04-23T11:26:38.001Z,47.25
2018-04-23T11:27:38.040Z,46.98
2018-04-23T11:28:38.348Z,47.47
2018-04-23T11:29:38.084Z,47.47
2018-04-23T11:30:38.060Z,47.86
2018-04-23T11:31:38.497Z,47.18
2018-04-23T11:32:38.126Z,47.08
2018-04-23T11:33:38.289Z,47.47
2018-04-23T11:34:38.625Z,47.18
2018-04-23T11:35:38.348Z,47.18
2018-04-23T11:36:38.530Z,47.47
2018-04-23T11:37:38.629Z,47.18
2018-04-23T11:38:38.489Z,47.08
2018-04-23T11:39:38.466Z,47.38
2018-04-23T11:40:38.859Z,47.47
2018-04-23T11:41:38.482Z,47.47
2018-04-23T11:42:38.678Z,47.47
2018-04-23T11:43:38.504Z,46.69
2018-04-23T11:44:38.651Z,46.89
2018-04-23T11:45:38.577Z,46.60
2018-04-23T11:46:39.065Z,46.79
2018-04-23T11:47:38.755Z,46.79
2018-04-23T11:48:39.108Z,46.79
2018-04-23T11:49:38.766Z,46.41
2018-04-23T11:50:38.748Z,46.50
2018-04-23T11:51:38.791Z,46.79
2018-04-23T11:52:39.412Z,46.79
2018-04-23T11:53:38.849Z,46.89
2018-04-23T11:54:39.103Z,46.79
2018-04-23T11:55:39.046Z,46.89
2018-04-23T11:56:39.088Z,47.18
2018-04-23T11:57:39.102Z,46.89
2018-04-23T11:58:39.378Z,46.89
2018-04-23T11:59:39.162Z,46.60
2018-04-23T12:00:39.158Z,46.89
2018-04-23T12:01:39.251Z,47.18
2018-04-23T12:02:39.392Z,46.79
2018-04-23T12:03:39.300Z,46.50
2018-04-23T12:04:40.466Z,46.79
2018-04-23T12:05:39.364Z,46.79
2018-04-23T12:06:39.600Z,46.60
2018-04-23T12:07:39.434Z,46.79
2018-04-23T12:08:39.487Z,47.08
2018-04-23T12:09:39.518Z,46.69
2018-04-23T12:10:39.853Z,46.50
2018-04-23T12:11:39.717Z,46.89
2018-04-23T12:12:39.743Z,46.79
2018-04-23T12:13:39.678Z,46.50
2018-04-23T12:14:39.681Z,46.31
2018-04-23T12:15:39.743Z,46.60
2018-04-23T12:16:39.982Z,46.31
2018-04-23T12:17:39.703Z,46.31
2018-04-23T12:18:39.765Z,46.50
2018-04-23T12:19:39.830Z,46.21
2018-04-23T12:20:39.897Z,46.31
2018-04-23T12:21:40.001Z,46.60
2018-04-23T12:22:40.433Z,46.79
2018-04-23T12:23:40.204Z,46.60
2018-04-23T12:24:40.055Z,46.60
2018-04-23T12:25:40.632Z,46.69
2018-04-23T12:26:40.042Z,46.50
2018-04-23T12:27:40.341Z,46.31
2018-04-23T12:28:40.548Z,46.41
2018-04-23T12:29:40.102Z,46.50
2018-04-23T12:30:40.353Z,46.21
2018-04-23T12:31:40.302Z,46.69
2018-04-23T12:32:40.321Z,46.69
2018-04-23T12:33:40.406Z,46.31
2018-04-23T12:34:41.013Z,46.60
2018-04-23T12:35:40.441Z,46.31
2018-04-23T12:36:40.433Z,46.31
2018-04-23T12:37:40.494Z,46.33
2018-04-23T12:38:40.612Z,46.79
2018-04-23T12:39:40.568Z,46.79
2018-04-23T12:40:41.197Z,46.52
2018-04-23T12:41:40.647Z,46.60
2018-04-23T12:42:41.937Z,46.14
2018-04-23T12:43:40.728Z,46.31
2018-04-23T12:44:40.707Z,46.42
2018-04-23T12:45:40.741Z,46.31
2018-04-23T12:46:41.016Z,46.50
2018-04-23T12:47:40.728Z,46.14
2018-04-23T12:48:40.851Z,46.11
2018-04-23T12:49:40.818Z,46.14
2018-04-23T12:50:40.945Z,46.42
2018-04-23T12:51:40.983Z,46.33
2018-04-23T12:52:41.213Z,46.52
2018-04-23T12:53:40.967Z,47.11